Time;durP1;ratioP1;P1;durP2;ratioP2;P2;SDS_P1;SDS_P2;PMS_P1;PMS_P2;Temp;Humidity;BMP_temperature;BMP_pressure;BME280_temperature;BME280_humidity;BME280_pressure;Samples;Min_cycle;Max_cycle;Signal;HPM_P1;HPM_P2
2021/06/01 00:01:47;;;;;;;15.32;7.93;;;10.40;99.90;;;9.06;98.33;101726.75;5010813;28;20094;-77
2021/06/01 00:04:14;;;;;;;17.70;8.90;;;10.30;99.90;;;8.98;98.90;101728.69;5035766;28;20503;-77
2021/06/01 00:06:42;;;;;;;14.57;8.15;;;10.20;99.90;;;8.88;98.76;101728.06;4994669;28;20070;-77
2021/06/01 00:09:20;;;;;;;15.63;8.07;;;10.20;99.90;;;8.77;98.57;101724.84;5007438;28;20124;-77
2021/06/01 00:11:47;;;;;;;14.32;8.55;;;10.10;99.90;;;8.67;99.51;101726.78;4950328;28;20078;-77
2021/06/01 00:14:18;;;;;;;19.38;8.90;;;10.00;99.90;;;8.62;99.12;101716.41;4986478;28;20088;-77
2021/06/01 00:16:47;;;;;;;15.23;8.55;;;10.00;99.90;;;8.59;100.00;101720.84;5001557;28;20087;-77
2021/06/01 00:19:13;;;;;;;17.25;8.63;;;9.90;99.90;;;8.56;100.00;101718.31;4976621;28;20062;-77
2021/06/01 00:21:40;;;;;;;16.65;7.80;;;9.90;99.90;;;8.53;99.97;101713.09;4980006;28;20092;-77
2021/06/01 00:24:10;;;;;;;15.65;8.73;;;9.80;99.90;;;8.51;99.97;101710.53;5006244;28;20074;-77
2021/06/01 00:26:39;;;;;;;17.90;8.55;;;9.80;99.90;;;8.50;100.00;101708.78;4981942;28;20067;-77
2021/06/01 00:29:06;;;;;;;22.10;9.50;;;9.80;99.90;;;8.49;100.00;101714.06;5023779;28;20498;-77
2021/06/01 00:31:33;;;;;;;17.98;9.98;;;9.80;99.90;;;8.52;100.00;101711.38;4990059;28;20074;-77
2021/06/01 00:34:00;;;;;;;17.40;9.13;;;9.80;99.90;;;8.50;100.00;101714.03;4971830;28;21140;-77
2021/06/01 00:36:26;;;;;;;16.77;9.30;;;9.80;99.90;;;8.51;100.00;101720.16;4970635;28;20117;-77
2021/06/01 00:38:52;;;;;;;19.75;9.35;;;9.80;99.90;;;8.53;100.00;101719.25;4999451;28;20139;-77
2021/06/01 00:41:18;;;;;;;22.15;9.60;;;9.90;99.90;;;8.55;100.00;101711.31;5017830;28;20066;-77
2021/06/01 00:43:44;;;;;;;27.40;9.93;;;9.80;99.90;;;8.53;100.00;101714.00;4996419;28;20488;-77
2021/06/01 00:46:10;;;;;;;24.08;10.30;;;9.80;99.90;;;8.48;100.00;101714.97;4969001;28;20415;-77
2021/06/01 00:48:36;;;;;;;19.77;10.05;;;9.80;99.90;;;8.46;100.00;101714.16;4981821;28;20104;-77
2021/06/01 00:51:03;;;;;;;20.52;9.48;;;9.70;99.90;;;8.40;100.00;101712.47;4962131;28;22638;-77
2021/06/01 00:53:31;;;;;;;15.32;9.10;;;9.70;99.90;;;8.35;100.00;101709.94;5000106;28;20074;-77
2021/06/01 00:55:58;;;;;;;17.88;9.52;;;9.60;99.90;;;8.29;100.00;101710.06;4982586;28;20077;-77
2021/06/01 00:58:25;;;;;;;18.27;9.80;;;9.60;99.90;;;8.27;100.00;101704.03;4966535;28;20080;-77
2021/06/01 01:03:39;;;;;;;18.40;6.57;;;9.40;99.90;;;7.93;100.00;101717.81;4999040;28;20519;-77
2021/06/01 01:06:46;;;;;;;8.73;5.05;;;9.20;99.90;;;7.64;100.00;101710.50;4961295;28;20067;-78
2021/06/01 01:09:16;;;;;;;14.35;7.70;;;8.90;99.90;;;7.48;100.00;101717.78;5001348;28;21469;-77
2021/06/01 01:12:06;;;;;;;14.38;7.63;;;8.80;99.90;;;7.35;100.00;101721.53;4960804;28;20491;-77
2021/06/01 01:14:41;;;;;;;13.07;7.25;;;8.70;99.90;;;7.30;100.00;101718.09;4955717;28;20419;-77
2021/06/01 01:17:19;;;;;;;13.30;7.78;;;8.70;99.90;;;7.31;100.00;101722.47;4978467;28;20061;-77
2021/06/01 01:20:10;;;;;;;16.83;9.27;;;8.70;99.90;;;7.40;100.00;101725.78;4970021;28;20058;-77
2021/06/01 01:22:43;;;;;;;22.05;9.45;;;8.80;99.90;;;7.49;100.00;101711.66;4991920;28;20094;-77
2021/06/01 01:25:41;;;;;;;19.75;9.05;;;8.80;99.90;;;7.53;100.00;101707.22;4947061;28;20117;-77
2021/06/01 01:28:35;;;;;;;18.10;9.40;;;8.90;99.90;;;7.56;100.00;101709.81;4986124;28;20078;-77
2021/06/01 01:31:54;;;;;;;22.48;9.95;;;8.90;99.90;;;7.59;100.00;101701.88;4988680;28;20066;-77
2021/06/01 01:34:23;;;;;;;19.48;10.23;;;9.00;99.90;;;7.65;100.00;101700.91;4991235;28;20402;-77
2021/06/01 01:36:50;;;;;;;21.05;10.23;;;9.00;99.90;;;7.70;100.00;101702.53;5003938;28;20077;-77
2021/06/01 01:39:19;;;;;;;20.63;10.50;;;9.10;99.90;;;7.78;100.00;101694.53;5000878;28;20066;-77
2021/06/01 01:41:49;;;;;;;19.90;11.48;;;9.30;99.90;;;7.98;100.00;101697.59;4953169;28;20071;-77
2021/06/01 01:44:18;;;;;;;27.00;11.88;;;9.40;99.90;;;8.08;100.00;101686.91;4926613;28;20080;-77
2021/06/01 01:47:02;;;;;;;30.77;12.25;;;9.50;99.90;;;8.21;100.00;101691.91;4991424;28;20123;-77
2021/06/01 01:49:32;;;;;;;24.05;12.20;;;9.60;99.90;;;8.27;100.00;101690.03;4958340;28;20129;-77
2021/06/01 01:52:00;;;;;;;28.35;12.93;;;9.70;99.90;;;8.27;100.00;101688.28;4994746;28;20572;-77
2021/06/01 01:54:31;;;;;;;25.55;12.25;;;9.60;99.90;;;8.26;100.00;101690.94;4977682;28;20078;-77
2021/06/01 01:57:09;;;;;;;23.73;11.98;;;9.60;99.90;;;8.19;100.00;101688.44;4922419;28;20487;-77
2021/06/01 01:59:39;;;;;;;20.60;11.15;;;9.50;99.90;;;8.11;100.00;101689.50;4969205;28;20588;-77
2021/06/01 02:02:11;;;;;;;19.08;9.68;;;9.40;99.90;;;7.99;100.00;101691.47;5006678;28;20133;-77
2021/06/01 02:04:41;;;;;;;23.13;11.35;;;9.30;99.90;;;7.97;100.00;101681.94;4987834;28;23740;-77
2021/06/01 02:07:07;;;;;;;20.10;11.27;;;9.30;99.90;;;7.94;100.00;101692.47;4962582;28;20067;-78
2021/06/01 02:09:33;;;;;;;21.73;10.88;;;9.30;99.90;;;7.89;100.00;101689.94;4988209;28;20077;-77
2021/06/01 02:11:59;;;;;;;19.25;11.02;;;9.30;99.90;;;7.87;100.00;101677.75;4943869;28;20189;-77
2021/06/01 02:14:25;;;;;;;18.15;10.43;;;9.20;99.90;;;7.85;100.00;101677.78;4966050;28;20079;-77
2021/06/01 02:17:01;;;;;;;18.90;10.73;;;9.20;99.90;;;7.85;100.00;101677.78;4978523;28;20062;-77
2021/06/01 02:19:27;;;;;;;18.17;10.00;;;9.20;99.90;;;7.82;100.00;101675.22;4953635;28;20116;-77
2021/06/01 02:25:06;;;;;;;19.63;10.70;;;9.20;99.90;;;7.81;100.00;101663.84;4990287;28;20480;-77
2021/06/01 02:28:14;;;;;;;24.90;10.23;;;9.20;99.90;;;7.83;100.00;101663.84;4992837;28;20518;-77
2021/06/01 02:31:04;;;;;;;19.40;10.57;;;9.20;99.90;;;7.77;100.00;101658.69;4996765;28;20144;-77
2021/06/01 02:33:37;;;;;;;25.15;10.50;;;9.10;99.90;;;7.73;100.00;101663.16;4973574;28;20065;-77
2021/06/01 02:36:09;;;;;;;26.33;10.88;;;9.10;99.90;;;7.75;100.00;101665.72;4987155;28;20076;-77
2021/06/01 02:38:36;;;;;;;24.40;11.45;;;9.10;99.90;;;7.77;100.00;101669.19;4960781;28;20122;-77
2021/06/01 02:41:05;;;;;;;20.83;10.95;;;9.20;99.90;;;7.83;100.00;101669.06;4972356;28;20072;-77
2021/06/01 02:43:31;;;;;;;20.38;10.68;;;9.20;99.90;;;7.87;100.00;101665.50;4993802;28;20071;-77
2021/06/01 02:46:01;;;;;;;26.27;12.18;;;9.30;99.90;;;7.92;100.00;101668.03;4996684;28;20066;-77
2021/06/01 02:48:28;;;;;;;21.10;11.40;;;9.40;99.90;;;7.95;100.00;101668.84;4996186;28;20062;-77
2021/06/01 02:51:13;;;;;;;21.55;11.40;;;9.40;99.90;;;8.04;100.00;101666.91;4990497;28;20563;-77
2021/06/01 02:53:48;;;;;;;26.58;12.85;;;9.50;99.90;;;8.18;100.00;101656.97;5012906;28;20251;-77
2021/06/01 02:56:15;;;;;;;27.73;12.07;;;9.60;99.90;;;8.22;100.00;101661.25;4995519;28;20065;-77
2021/06/01 02:58:44;;;;;;;29.50;12.50;;;9.60;99.90;;;8.27;100.00;101653.28;4992423;28;20063;-77
2021/06/01 03:01:20;;;;;;;26.63;12.55;;;9.70;99.90;;;8.32;100.00;101652.31;4938701;28;20070;-77
2021/06/01 03:03:54;;;;;;;28.65;13.15;;;9.70;99.90;;;8.36;100.00;101659.22;4902936;28;20438;-77
2021/06/01 03:06:31;;;;;;;26.70;13.80;;;9.70;99.90;;;8.40;100.00;101653.03;4941378;28;20106;-77
2021/06/01 03:08:59;;;;;;;25.52;13.13;;;9.80;99.90;;;8.43;100.00;101657.34;4954829;28;20062;-77
2021/06/01 03:11:25;;;;;;;25.48;13.68;;;9.80;99.90;;;8.46;100.00;101662.50;5017967;28;20062;-77
2021/06/01 03:13:53;;;;;;;25.40;13.20;;;9.80;99.90;;;8.39;100.00;101664.38;5000522;28;20136;-77
2021/06/01 03:16:21;;;;;;;24.27;12.23;;;9.80;99.90;;;8.45;100.00;101663.41;4940822;28;20066;-77
2021/06/01 03:18:50;;;;;;;20.65;12.35;;;9.80;99.90;;;8.48;100.00;101658.09;5007619;28;20486;-77
2021/06/01 03:21:17;;;;;;;25.20;13.38;;;9.90;99.90;;;8.53;100.00;101652.72;4979780;28;20112;-77
2021/06/01 03:23:46;;;;;;;27.00;13.07;;;9.90;99.90;;;8.58;100.00;101648.25;5025176;28;20546;-77
2021/06/01 03:26:12;;;;;;;25.55;12.73;;;10.00;99.90;;;8.67;100.00;101657.66;4926935;28;20066;-77
2021/06/01 03:28:39;;;;;;;25.10;11.73;;;10.10;99.90;;;8.69;100.00;101661.97;4979690;28;20586;-77
2021/06/01 03:31:08;;;;;;;24.38;13.05;;;10.10;99.90;;;8.77;100.00;101654.78;4990649;28;20074;-77
2021/06/01 03:33:35;;;;;;;26.73;12.25;;;10.20;99.90;;;8.83;100.00;101659.00;4961879;28;20066;-77
2021/06/01 03:36:02;;;;;;;27.27;13.23;;;10.20;99.90;;;8.91;100.00;101661.47;4982166;28;20078;-77
2021/06/01 03:38:28;;;;;;;28.98;13.55;;;10.30;99.90;;;8.96;100.00;101659.56;4991492;28;20086;-77
2021/06/01 03:40:54;;;;;;;20.42;12.15;;;10.40;99.90;;;9.04;100.00;101652.38;5000013;28;20070;-77
2021/06/01 03:43:23;;;;;;;25.25;13.40;;;;;;;9.10;100.00;101651.34;5008654;28;20722;-77
2021/06/01 03:45:48;;;;;;;25.20;12.98;;;10.50;99.90;;;9.19;100.00;101646.72;5000238;28;20140;-77
2021/06/01 03:48:14;;;;;;;30.42;13.13;;;10.60;99.90;;;9.29;100.00;101647.34;4990898;28;20065;-77
2021/06/01 03:50:40;;;;;;;23.65;12.85;;;10.70;99.90;;;9.37;100.00;101641.88;5001116;28;20123;-78
2021/06/01 03:53:06;;;;;;;24.30;12.18;;;10.70;99.90;;;9.41;100.00;101640.88;4964998;28;21507;-77
2021/06/01 03:55:32;;;;;;;26.73;12.77;;;10.80;99.90;;;9.48;100.00;101652.09;4995693;28;20148;-77
2021/06/01 03:58:04;;;;;;;22.67;11.60;;;10.90;99.90;;;9.56;100.00;101645.72;5033864;28;20072;-77
2021/06/01 04:00:31;;;;;;;22.77;12.05;;;11.00;99.90;;;9.65;100.00;101640.22;5036981;28;20430;-77
2021/06/01 04:02:58;;;;;;;21.88;11.88;;;11.10;99.90;;;9.78;100.00;101648.63;5009248;28;20066;-77
2021/06/01 04:05:24;;;;;;;24.75;12.05;;;11.30;99.90;;;9.95;100.00;101642.84;5004547;28;20542;-77
2021/06/01 04:07:55;;;;;;;23.80;12.10;;;11.50;99.90;;;10.23;100.00;101649.94;4999949;28;20078;-77
2021/06/01 04:10:21;;;;;;;28.20;12.55;;;11.70;99.90;;;10.41;100.00;101646.78;5008587;28;20196;-77
2021/06/01 04:12:47;;;;;;;25.40;12.65;;;11.90;99.90;;;10.54;100.00;101641.09;5008512;28;20081;-78
2021/06/01 04:15:13;;;;;;;21.88;11.68;;;12.00;99.90;;;10.57;100.00;101647.16;5017345;28;20073;-77
2021/06/01 04:17:39;;;;;;;30.05;12.45;;;12.00;99.90;;;10.65;100.00;101642.50;4996864;28;20430;-77
2021/06/01 04:20:10;;;;;;;23.00;12.00;;;12.10;99.90;;;10.77;100.00;101650.91;4990466;28;20073;-77
2021/06/01 04:22:36;;;;;;;21.67;11.77;;;12.10;99.90;;;10.79;100.00;101646.44;4986252;28;20499;-77
2021/06/01 04:25:06;;;;;;;24.38;12.07;;;12.20;99.90;;;10.87;100.00;101647.94;4979474;28;20071;-77
2021/06/01 04:27:31;;;;;;;19.10;11.15;;;12.20;99.90;;;10.94;100.00;101653.00;4985841;28;20064;-77
2021/06/01 04:29:57;;;;;;;22.83;12.60;;;12.40;99.90;;;11.08;100.00;101642.88;4982103;28;20132;-77
2021/06/01 04:32:27;;;;;;;22.63;11.43;;;12.60;99.90;;;11.35;100.00;101640.16;4926195;28;20156;-78
2021/06/01 04:34:53;;;;;;;22.45;12.18;;;13.00;99.90;;;11.70;99.45;101634.50;4980125;28;20094;-78
2021/06/01 04:37:19;;;;;;;18.38;10.68;;;13.30;99.90;;;12.08;98.39;101626.06;4949915;28;20062;-78
2021/06/01 04:39:45;;;;;;;23.05;10.98;;;13.80;99.90;;;12.60;95.71;101634.56;4978874;28;20063;-77
2021/06/01 04:42:11;;;;;;;20.95;9.93;;;14.30;99.90;;;13.02;95.24;101632.84;4965896;28;20118;-77
2021/06/01 04:44:42;;;;;;;17.80;9.10;;;14.80;99.90;;;13.41;92.67;101629.44;4964815;28;20076;-78
2021/06/01 04:47:08;;;;;;;15.40;8.38;;;15.10;99.90;;;13.68;89.65;101617.63;4974486;28;20067;-78
2021/06/01 04:49:35;;;;;;;13.70;8.65;;;15.20;99.90;;;13.82;89.95;101621.44;4984553;28;20103;-78
2021/06/01 04:52:02;;;;;;;16.55;8.65;;;15.30;99.90;;;13.91;90.09;101621.03;4987798;28;20474;-78
2021/06/01 04:54:27;;;;;;;18.63;8.95;;;15.30;99.90;;;13.87;90.43;101624.75;4985917;28;20080;-77
2021/06/01 04:57:02;;;;;;;17.38;8.95;;;15.20;99.90;;;13.75;90.71;101621.72;4965631;28;20069;-77
2021/06/01 04:59:28;;;;;;;14.90;8.48;;;15.40;99.90;;;13.90;90.11;101621.94;4940840;28;20162;-77
2021/06/01 05:01:54;;;;;;;13.30;8.55;;;15.50;99.90;;;14.19;88.99;101622.34;4976658;28;20685;-77
2021/06/01 05:04:20;;;;;;;18.95;9.40;;;15.70;99.90;;;14.43;88.10;101618.53;4989282;28;20064;-77
2021/06/01 05:06:46;;;;;;;17.67;8.98;;;15.90;99.90;;;14.66;87.37;101625.38;4974315;28;20552;-78
2021/06/01 05:09:14;;;;;;;15.75;7.93;;;16.00;99.90;;;14.46;88.03;101636.09;4919992;28;20069;-78
2021/06/01 05:11:40;;;;;;;17.48;8.70;;;15.80;99.90;;;14.20;89.33;101634.69;4927052;28;20524;-77
2021/06/01 05:14:10;;;;;;;13.38;7.53;;;15.90;99.90;;;14.36;88.52;101633.00;4956246;28;20088;-77
2021/06/01 05:16:40;;;;;;;13.55;7.35;;;16.20;99.90;;;14.75;85.81;101632.03;4961653;28;20068;-78
2021/06/01 05:19:06;;;;;;;16.88;7.40;;;16.20;99.90;;;14.30;86.54;101633.31;4981198;28;20065;-77
2021/06/01 05:21:32;;;;;;;11.63;7.65;;;15.70;99.90;;;14.05;88.37;101644.22;4966276;28;20071;-77
2021/06/01 05:23:57;;;;;;;12.98;8.02;;;15.50;99.90;;;13.82;88.75;101637.31;4991271;28;20077;-77
2021/06/01 05:26:24;;;;;;;13.07;7.68;;;15.40;99.90;;;14.21;88.00;101636.38;4996881;28;20075;-77
2021/06/01 05:28:50;;;;;;;11.93;7.32;;;15.60;99.90;;;14.33;87.12;101633.16;4981511;28;20052;-77
2021/06/01 05:31:20;;;;;;;14.15;7.75;;;15.80;99.90;;;14.71;86.10;101633.13;4965617;28;20069;-78
2021/06/01 05:33:54;;;;;;;12.90;7.20;;;16.30;99.90;;;15.10;84.33;101629.41;4975340;28;20068;-78
2021/06/01 05:36:20;;;;;;;10.70;7.25;;;16.60;99.90;;;15.49;82.93;101628.28;5017795;28;20059;-77
2021/06/01 05:38:54;;;;;;;14.13;7.68;;;17.00;99.90;;;15.87;81.16;101625.38;4982088;28;20110;-77
2021/06/01 05:41:21;;;;;;;12.77;6.70;;;17.10;99.90;;;15.62;80.17;101625.81;4947492;28;20063;-78
2021/06/01 05:43:46;;;;;;;12.35;7.03;;;17.10;99.90;;;15.36;82.02;101628.91;4924152;28;20134;-77
2021/06/01 05:46:12;;;;;;;14.07;7.05;;;16.60;99.90;;;14.68;82.25;101633.28;4987189;28;20069;-77
2021/06/01 05:48:46;;;;;;;14.02;7.18;;;16.20;99.90;;;14.58;83.20;101638.19;4976255;28;20049;-77
2021/06/01 05:51:12;;;;;;;10.13;7.03;;;15.80;99.90;;;14.33;85.83;101639.31;4956215;28;20063;-77
2021/06/01 05:53:38;;;;;;;14.60;7.35;;;15.60;99.90;;;14.22;86.18;101641.63;4995315;28;20501;-77
2021/06/01 05:56:04;;;;;;;13.93;6.70;;;15.60;99.90;;;14.26;85.23;101634.41;4935266;28;20057;-77
2021/06/01 05:58:33;;;;;;;13.45;7.60;;;15.90;99.90;;;14.87;83.84;101641.16;4936928;28;20071;-77
2021/06/01 06:00:58;;;;;;;14.52;7.25;;;16.60;99.90;;;15.53;82.80;101632.47;4952648;28;20068;-77
2021/06/01 06:03:24;;;;;;;10.80;6.40;;;17.20;99.90;;;16.08;79.24;101623.34;4975115;28;20066;-77
2021/06/01 06:05:50;;;;;;;10.95;6.65;;;17.70;99.90;;;16.40;74.60;101619.72;4986377;28;20084;-77
2021/06/01 06:08:19;;;;;;;10.40;6.65;;;18.00;99.90;;;16.65;74.66;101628.09;4978962;28;20029;-77
2021/06/01 06:10:51;;;;;;;12.50;6.35;;;18.40;99.90;;;16.92;73.96;101623.00;4954109;28;20052;-77
2021/06/01 06:13:18;;;;;;;11.38;6.30;;;17.90;99.90;;;15.99;76.14;101620.25;4968774;28;20071;-77
2021/06/01 06:15:44;;;;;;;11.63;6.68;;;17.70;99.90;;;16.27;78.01;101620.53;5004994;28;20047;-77
2021/06/01 06:18:22;;;;;;;12.13;7.18;;;17.70;99.90;;;16.42;78.02;101617.00;4972806;28;20018;-77
2021/06/01 06:20:48;;;;;;;10.50;6.07;;;18.40;99.90;;;17.02;73.04;101622.38;4966001;28;20017;-77
2021/06/01 06:23:14;;;;;;;9.32;5.90;;;18.70;99.90;;;17.18;72.88;101616.97;4989111;28;20021;-77
2021/06/01 06:25:40;;;;;;;11.27;5.55;;;18.70;99.90;;;17.10;71.91;101623.72;4994660;28;20028;-77
2021/06/01 06:28:05;;;;;;;11.30;6.03;;;18.90;99.90;;;17.39;72.19;101619.31;4982464;28;20147;-76
2021/06/01 06:30:32;;;;;;;12.98;5.90;;;19.30;99.90;;;17.82;71.59;101617.53;5008284;28;20017;-77
2021/06/01 06:32:59;;;;;;;8.38;5.43;;;18.80;99.90;;;17.31;71.98;101610.91;4988306;28;20040;-77
2021/06/01 06:35:25;;;;;;;12.32;5.28;;;19.20;99.90;;;17.81;71.97;101614.91;4991003;28;20473;-77
2021/06/01 06:37:51;;;;;;;9.80;5.72;;;19.30;99.90;;;17.95;71.33;101616.75;4984526;28;20071;-76
2021/06/01 06:48:49;;;;;;;9.75;5.10;;;20.00;99.90;;;18.44;67.98;101609.09;5000074;28;20072;-77
2021/06/01 06:51:15;;;;;;;11.23;5.03;;;19.50;99.90;;;17.70;69.79;101610.25;4960571;28;20021;-77
2021/06/01 06:53:51;;;;;;;10.43;4.85;;;19.60;99.90;;;18.17;69.72;101605.56;4970714;28;20108;-76
2021/06/01 06:56:24;;;;;;;8.02;4.50;;;19.20;99.90;;;17.67;69.20;101601.59;4998840;28;20034;-77
2021/06/01 06:58:54;;;;;;;14.10;5.00;;;19.00;99.90;;;17.60;67.27;101594.00;4983268;28;20052;-77
2021/06/01 07:01:20;;;;;;;8.13;3.78;;;19.40;99.90;;;18.36;65.27;101590.09;4975478;28;20085;-77
2021/06/01 07:03:46;;;;;;;7.82;4.13;;;19.70;99.90;;;18.42;63.50;101592.34;4952987;28;20497;-77
2021/06/01 07:06:13;;;;;;;10.00;4.03;;;19.50;99.90;;;18.14;65.19;101589.75;4970301;28;20140;-77
2021/06/01 07:08:41;;;;;;;7.82;4.00;;;19.60;99.90;;;18.61;62.32;101586.63;4977759;28;20029;-76
2021/06/01 07:11:07;;;;;;;5.80;3.63;;;19.80;99.90;;;18.70;63.36;101584.31;5004680;28;20033;-77
2021/06/01 07:14:09;;;;;;;9.57;4.22;;;19.70;99.90;;;18.27;64.15;101584.47;5011056;28;21824;-77
2021/06/01 07:16:40;;;;;;;6.70;3.67;;;19.70;99.90;;;18.84;63.04;101578.94;4990697;28;20895;-77
2021/06/01 07:19:06;;;;;;;11.45;4.55;;;20.60;99.90;;;19.93;57.62;101578.47;4968434;28;20022;-77
2021/06/01 07:21:32;;;;;;;12.02;4.30;;;21.50;99.90;;;20.39;57.02;101575.06;4987585;28;20033;-77
2021/06/01 07:23:58;;;;;;;5.75;3.80;;;21.90;99.90;;;20.34;55.61;101564.72;4933835;28;20065;-78
2021/06/01 07:26:25;;;;;;;6.68;3.72;;;21.80;99.90;;;20.94;54.89;101572.75;4967863;28;20038;-77
2021/06/01 07:28:52;;;;;;;7.07;3.88;;;22.10;99.90;;;21.08;54.76;101573.38;4967648;28;20096;-77
2021/06/01 07:31:20;;;;;;;9.88;4.13;;;21.90;99.90;;;20.30;56.40;101581.94;4978415;28;20659;-76
2021/06/01 07:33:48;;;;;;;8.63;4.05;;;21.60;99.90;;;20.28;56.56;101583.91;4966417;28;20033;-77
2021/06/01 07:36:14;;;;;;;9.60;4.22;;;21.10;99.90;;;19.54;58.50;101583.00;4985662;28;20017;-77
2021/06/01 07:38:40;;;;;;;12.30;4.25;;;20.90;99.90;;;19.87;56.97;101579.78;4983646;28;20417;-77
2021/06/01 07:41:07;;;;;;;7.60;4.28;;;21.50;99.90;;;20.32;55.45;101580.00;4974469;28;20029;-76
2021/06/01 07:43:38;;;;;;;7.47;4.03;;;21.60;99.90;;;20.66;56.81;101575.69;4974252;28;20029;-77
2021/06/01 07:46:05;;;;;;;8.07;4.43;;;21.20;99.90;;;20.12;57.54;101568.13;4990397;28;20421;-77
2021/06/01 07:48:35;;;;;;;6.43;3.22;;;21.50;99.90;;;20.25;58.03;101573.44;4992632;28;20447;-77
2021/06/01 07:51:11;;;;;;;7.60;3.80;;;21.80;99.90;;;20.78;55.75;101565.91;4963755;28;20494;-79
2021/06/01 07:53:41;;;;;;;8.77;3.90;;;22.00;99.90;;;20.87;57.43;101561.66;4969662;28;20052;-78
2021/06/01 07:56:10;;;;;;;6.63;3.90;;;21.80;99.90;;;20.27;55.64;101561.66;4958702;28;20083;-77
2021/06/01 07:58:36;;;;;;;6.35;4.03;;;21.60;99.90;;;20.04;56.65;101570.50;5000432;28;20025;-77
2021/06/01 08:01:02;;;;;;;11.88;4.07;;;21.00;99.90;;;19.67;58.46;101570.47;4981026;28;20048;-78
2021/06/01 08:03:28;;;;;;;8.10;4.28;;;21.40;99.90;;;20.48;57.26;101561.88;4993491;28;20037;-77
2021/06/01 08:05:54;;;;;;;7.68;4.20;;;21.10;99.90;;;19.71;60.32;101569.31;5002845;28;20354;-77
2021/06/01 08:08:20;;;;;;;6.70;3.78;;;20.60;99.90;;;19.12;60.08;101571.72;5010447;28;20104;-77
2021/06/01 08:10:53;;;;;;;8.20;3.72;;;20.80;99.90;;;19.80;60.55;101568.66;4981630;28;21558;-77
2021/06/01 08:13:19;;;;;;;8.82;4.10;;;20.60;99.90;;;19.33;61.35;101564.88;4936015;28;20041;-76
2021/06/01 08:15:49;;;;;;;11.15;4.07;;;20.60;99.90;;;19.19;61.02;101563.16;4993680;28;20026;-76
2021/06/01 08:18:18;;;;;;;10.13;4.00;;;19.90;99.90;;;18.27;61.94;101573.81;4947953;28;20029;-77
2021/06/01 08:20:56;;;;;;;9.75;3.53;;;20.40;99.90;;;18.91;62.63;101564.19;4995828;28;20037;-77
2021/06/01 08:23:22;;;;;;;7.25;3.42;;;20.70;99.90;;;19.65;59.52;101559.91;4983879;28;20393;-81
2021/06/01 08:25:49;;;;;;;8.52;3.55;;;21.00;99.90;;;19.51;55.66;101559.19;4972420;28;20051;-78
2021/06/01 08:28:15;;;;;;;11.23;4.28;;;20.80;99.90;;;19.32;58.14;101562.31;4986961;28;20033;-77
2021/06/01 08:30:41;;;;;;;7.53;3.97;;;20.30;99.90;;;18.89;63.26;101570.59;4971966;28;20424;-76
2021/06/01 08:33:07;;;;;;;9.80;4.38;;;20.40;99.90;;;19.13;60.77;101570.72;4978175;28;20480;-76
2021/06/01 08:35:33;;;;;;;13.90;5.03;;;20.40;99.90;;;19.30;59.92;101562.41;4942199;28;20034;-76
2021/06/01 08:38:01;;;;;;;8.73;3.85;;;20.70;99.90;;;19.68;60.66;101564.19;4971234;28;20057;-76
2021/06/01 08:40:27;;;;;;;9.60;3.83;;;20.70;99.90;;;19.62;59.61;101561.94;4993719;28;20029;-79
2021/06/01 08:42:53;;;;;;;6.47;3.60;;;20.30;99.90;;;18.69;59.34;101567.44;5013218;28;20117;-75
2021/06/01 08:45:20;;;;;;;11.98;3.90;;;19.60;99.90;;;18.20;61.44;101570.69;5001988;28;20480;-76
2021/06/01 08:47:47;;;;;;;9.07;4.05;;;19.50;99.90;;;18.36;62.12;101567.91;5021785;28;20055;-76
2021/06/01 08:50:16;;;;;;;7.55;3.78;;;19.90;99.90;;;18.91;63.33;101566.03;4965405;28;20029;-78
2021/06/01 08:52:42;;;;;;;8.68;4.30;;;20.20;99.90;;;19.24;61.81;101562.81;5016411;28;20370;-78
2021/06/01 08:55:11;;;;;;;6.88;3.35;;;20.50;99.90;;;19.34;60.80;101557.72;5010338;28;20064;-75
2021/06/01 08:57:39;;;;;;;14.52;4.18;;;20.30;99.90;;;19.29;63.32;101566.03;5003089;28;20082;-76
2021/06/01 09:00:12;;;;;;;6.55;3.83;;;20.30;99.90;;;19.15;60.94;101553.63;5020099;28;20489;-78
2021/06/01 09:03:09;;;;;;;6.63;3.90;;;20.30;99.90;;;19.25;64.21;101551.19;4930736;28;20120;-76
2021/06/01 09:06:26;;;;;;;7.28;4.07;;;20.10;99.90;;;18.94;62.61;101555.13;4950623;28;20048;-75
2021/06/01 09:09:25;;;;;;;10.05;4.13;;;19.80;99.90;;;18.79;64.08;101552.56;4950122;28;21404;-75
2021/06/01 09:24:01;;;;;;;9.25;3.95;;;20.70;99.90;;;19.23;61.38;101553.13;4942422;28;20040;-75
2021/06/01 09:27:05;;;;;;;8.95;3.95;;;20.20;99.90;;;19.06;63.56;101556.97;4930109;28;20041;-76
2021/06/01 09:30:03;;;;;;;6.60;4.28;;;20.10;99.90;;;18.35;66.44;101571.50;4929619;28;20030;-75
2021/06/01 09:33:09;;;;;;;15.27;5.63;;;19.50;99.90;;;18.15;70.73;101571.00;4973060;28;20054;-75
2021/06/01 09:36:44;;;;;;;8.55;5.47;;;19.10;99.90;;;17.92;72.79;101568.97;4944086;28;20025;-78
2021/06/01 09:39:32;;;;;;;13.95;5.40;;;19.20;99.90;;;18.12;71.41;101568.56;4933960;28;20049;-75
2021/06/01 09:42:30;;;;;;;11.00;5.07;;;19.10;99.90;;;17.78;74.18;101576.00;4927231;28;20043;-76
2021/06/01 09:45:42;;;;;;;10.48;5.53;;;19.10;99.90;;;17.73;73.88;101579.91;4899506;28;20102;-78
2021/06/01 09:49:06;;;;;;;10.32;5.82;;;18.90;99.90;;;17.72;74.75;101578.22;4941968;28;20028;-76
2021/06/01 09:52:53;;;;;;;11.95;5.75;;;18.60;99.90;;;17.32;76.05;101575.34;4960778;28;20438;-76
2021/06/01 09:56:34;;;;;;;12.70;6.43;;;18.30;99.90;;;16.53;79.02;101577.34;4954238;28;20042;-79
2021/06/01 10:00:19;;;;;;;16.10;8.10;;;17.90;99.90;;;16.51;80.87;101592.53;4978074;28;20069;-75
2021/06/01 10:03:25;;;;;;;13.00;8.05;;;17.60;99.90;;;16.26;81.73;101581.59;4976530;28;20080;-75
2021/06/01 10:06:21;;;;;;;18.05;8.30;;;17.40;99.90;;;16.02;83.26;101582.03;4949375;28;20096;-78
2021/06/01 10:09:12;;;;;;;17.88;7.97;;;17.50;99.90;;;16.29;83.13;101584.09;4940901;28;20139;-76
2021/06/01 10:12:08;;;;;;;12.63;8.07;;;17.70;99.90;;;16.43;80.93;101586.78;4916365;28;20561;-77
2021/06/01 10:15:47;;;;;;;15.95;7.65;;;18.00;99.90;;;16.86;80.10;101581.66;4928218;28;21238;-77
2021/06/01 10:19:31;;;;;;;14.18;7.70;;;18.20;99.90;;;16.72;80.75;101577.13;4972904;28;20123;-76
2021/06/01 10:22:17;;;;;;;13.18;7.35;;;18.60;99.90;;;17.52;78.25;101571.47;4939337;28;20107;-76
2021/06/01 10:25:36;;;;;;;18.27;7.90;;;18.60;99.90;;;17.66;75.48;101575.94;4936199;28;20099;-77
2021/06/01 10:28:56;;;;;;;16.70;8.25;;;18.40;99.90;;;16.84;76.67;101582.69;4957398;28;20072;-76
2021/06/01 10:32:26;;;;;;;14.07;7.28;;;18.30;99.90;;;17.31;77.86;101584.31;4928860;28;20067;-77
2021/06/01 10:42:45;;;;;;;13.93;6.28;;;18.40;99.90;;;16.97;76.01;101587.19;4970609;28;20158;-76
2021/06/01 10:51:51;;;;;;;17.65;6.25;;;17.80;99.90;;;16.38;76.46;101597.69;4935091;28;20546;-76
2021/06/01 10:55:07;;;;;;;12.60;6.47;;;17.70;99.90;;;16.75;76.54;101598.22;4949086;28;20065;-76
2021/06/01 10:58:02;;;;;;;12.70;6.28;;;18.00;99.90;;;16.98;75.74;101588.91;4933972;28;20446;-76
2021/06/01 11:03:11;;;;;;;14.50;6.88;;;18.10;99.90;;;16.89;75.92;101594.78;4974932;28;20513;-76
2021/06/01 11:05:59;;;;;;;12.23;7.05;;;18.30;99.90;;;17.17;72.22;101595.78;4953866;28;20493;-77
2021/06/01 11:08:44;;;;;;;16.40;7.03;;;18.40;99.90;;;17.40;73.02;101594.38;4958218;28;20510;-76
2021/06/01 11:11:39;;;;;;;14.43;6.60;;;18.90;99.90;;;17.81;68.32;101599.78;4936140;28;20091;-77
2021/06/01 11:14:28;;;;;;;12.40;6.30;;;18.80;99.90;;;17.01;70.89;101591.38;4961558;28;20085;-76
2021/06/01 11:16:58;;;;;;;13.52;6.50;;;18.70;99.90;;;17.56;70.09;101594.31;4961043;28;20143;-76
2021/06/01 11:19:45;;;;;;;8.82;4.63;;;18.70;99.90;;;17.13;71.63;101594.28;4982432;28;20580;-76
2021/06/01 11:22:28;;;;;;;11.40;5.97;;;18.80;99.90;;;17.91;69.83;101588.59;4986176;28;20115;-76